Time;durP1;ratioP1;P1;durP2;ratioP2;P2;SDS_P1;SDS_P2;PMS_P1;PMS_P2;Temp;Humidity;BMP_temperature;BMP_pressure;BME280_temperature;BME280_humidity;BME280_pressure;Samples;Min_cycle;Max_cycle;Signal;HPM_P1;HPM_P2
2021/07/15 00:00:28;;;;;;;17.77;10.17;;;;;;;23.00;81.34;100755.59;5088890;28;20268;-67
2021/07/15 00:02:57;;;;;;;16.13;9.73;;;;;;;22.96;81.38;100759.72;5079242;28;20193;-67
2021/07/15 00:05:26;;;;;;;15.87;9.93;;;;;;;22.98;81.14;100756.81;5086831;28;20672;-67
2021/07/15 00:07:54;;;;;;;16.57;9.80;;;;;;;22.85;81.81;100761.00;5086983;28;20231;-67
2021/07/15 00:10:28;;;;;;;15.23;9.43;;;;;;;22.94;81.72;100767.25;5090317;28;20200;-66
2021/07/15 00:12:57;;;;;;;15.20;9.60;;;;;;;22.94;81.53;100767.25;5087052;28;20589;-67
2021/07/15 00:15:27;;;;;;;13.37;9.20;;;;;;;22.98;81.76;100765.03;5082830;28;20657;-67
2021/07/15 00:17:57;;;;;;;16.77;10.23;;;;;;;22.90;82.37;100775.00;5087395;28;20709;-67
2021/07/15 00:20:25;;;;;;;16.57;10.10;;;;;;;22.93;81.89;100763.66;5080627;28;20715;-67
2021/07/15 00:22:54;;;;;;;15.63;9.37;;;;;;;22.87;82.01;100766.28;5081865;28;20698;-66
2021/07/15 00:25:24;;;;;;;17.30;9.93;;;;;;;22.55;82.96;100729.88;5080825;28;20284;-67
2021/07/15 00:27:52;;;;;;;18.00;10.43;;;;;;;22.61;82.79;100753.78;5093687;28;20227;-66
2021/07/15 00:30:20;;;;;;;16.53;10.07;;;;;;;22.79;82.90;100769.06;5086566;28;20197;-66
2021/07/15 00:32:48;;;;;;;20.40;9.53;;;;;;;22.77;83.15;100771.13;5086415;28;20207;-67
2021/07/15 00:35:16;;;;;;;15.87;9.40;;;;;;;22.62;82.41;100741.78;5081468;28;20202;-66
2021/07/15 00:37:45;;;;;;;17.77;10.13;;;;;;;22.72;83.51;100768.94;5082576;28;20280;-66
2021/07/15 00:40:16;;;;;;;17.17;9.83;;;;;;;22.63;83.61;100753.59;5087530;28;20203;-66
2021/07/15 00:42:46;;;;;;;17.37;10.13;;;;;;;22.54;83.98;100755.53;5085428;28;20234;-66
2021/07/15 00:45:17;;;;;;;17.20;9.87;;;;;;;22.56;83.89;100763.56;5087893;28;20212;-66
2021/07/15 00:47:46;;;;;;;17.00;10.23;;;;;;;22.41;84.63;100755.31;5087861;28;20247;-66
2021/07/15 00:50:16;;;;;;;17.93;10.30;;;;;;;22.46;84.97;100754.75;5085032;28;20219;-67
2021/07/15 00:52:44;;;;;;;18.33;10.60;;;;;;;22.55;84.55;100759.13;5075121;28;20202;-67
2021/07/15 00:55:18;;;;;;;17.03;10.37;;;;;;;22.66;82.96;100758.72;5083416;28;20203;-67
2021/07/15 00:57:49;;;;;;;16.17;10.17;;;;;;;22.71;82.46;100760.91;5080823;28;20212;-67
2021/07/15 01:00:19;;;;;;;14.93;9.50;;;;;;;22.70;82.25;100771.03;5086384;28;20200;-67
2021/07/15 01:02:48;;;;;;;16.07;9.63;;;;;;;22.57;81.74;100754.31;5074542;28;20700;-66
2021/07/15 01:05:19;;;;;;;17.80;9.97;;;;;;;22.66;82.38;100768.84;5094761;28;20202;-67
2021/07/15 01:07:48;;;;;;;14.63;9.50;;;;;;;22.38;81.42;100711.03;5084084;28;20207;-67
2021/07/15 01:10:18;;;;;;;19.30;10.80;;;;;;;22.52;83.11;100765.81;5087187;28;20201;-66
2021/07/15 01:13:02;;;;;;;17.73;10.70;;;;;;;22.56;83.22;100763.56;5085723;28;20211;-66
2021/07/15 01:15:36;;;;;;;21.57;10.93;;;;;;;22.44;84.12;100763.16;5084168;28;20694;-67
2021/07/15 01:18:12;;;;;;;18.10;10.30;;;;;;;22.54;82.52;100755.53;5092738;28;20197;-67
2021/07/15 01:21:07;;;;;;;16.73;10.10;;;;;;;22.67;82.43;100776.88;5093083;28;20263;-67
2021/07/15 01:23:59;;;;;;;15.47;9.33;;;;;;;22.60;82.86;100771.25;5085001;28;20205;-67
2021/07/15 01:26:48;;;;;;;20.43;10.43;;;;;;;22.68;82.25;100767.63;5090956;28;20203;-67
2021/07/15 01:29:31;;;;;;;18.30;10.30;;;;;;;22.68;82.33;100772.25;5089115;28;20692;-67
2021/07/15 01:32:05;;;;;;;17.70;9.80;;;;;;;22.66;81.92;100769.69;5079431;28;20696;-66
2021/07/15 01:34:36;;;;;;;19.20;9.83;;;;;;;22.48;81.51;100734.38;5091798;28;20200;-66
2021/07/15 01:37:06;;;;;;;16.00;10.43;;;;;;;22.42;81.90;100743.31;5072711;28;20200;-66
2021/07/15 01:39:37;;;;;;;17.50;10.40;;;;;;;22.60;82.11;100765.75;5084889;28;20196;-66
2021/07/15 01:42:09;;;;;;;20.60;10.70;;;;;;;22.57;82.57;100768.88;5091641;28;20200;-66
2021/07/15 01:44:39;;;;;;;18.67;10.17;;;;;;;22.54;83.30;100777.44;5090616;28;20200;-66
2021/07/15 01:47:09;;;;;;;16.63;9.73;;;;;;;22.59;82.84;100769.53;5090598;28;20199;-67
2021/07/15 01:49:38;;;;;;;19.60;10.50;;;;;;;22.61;82.52;100761.13;5092125;28;20718;-66
2021/07/15 01:52:07;;;;;;;18.20;11.00;;;;;;;22.55;82.85;100762.72;5089130;28;20204;-67
2021/07/15 01:54:36;;;;;;;18.00;11.03;;;;;;;22.56;83.27;100763.56;5091647;28;20581;-66
2021/07/15 01:57:07;;;;;;;18.20;10.17;;;;;;;22.53;82.41;100753.84;5077462;28;20205;-67
2021/07/15 01:59:37;;;;;;;19.30;9.83;;;;;;;22.63;82.93;100759.91;5081343;28;20691;-66
2021/07/15 02:02:06;;;;;;;18.30;11.00;;;;;;;22.53;83.43;100745.63;5079047;28;20205;-66
2021/07/15 02:04:38;;;;;;;19.30;11.00;;;;;;;22.58;82.80;100751.41;5072318;28;20205;-66
2021/07/15 02:07:08;;;;;;;19.57;10.50;;;;;;;22.65;82.18;100747.94;5074173;28;20201;-67
2021/07/15 02:09:37;;;;;;;18.37;10.67;;;;;;;22.55;82.50;100743.56;5079539;28;20220;-66
2021/07/15 02:12:06;;;;;;;19.23;10.57;;;;;;;22.55;82.97;100750.91;5076930;28;20577;-66
2021/07/15 02:14:35;;;;;;;21.30;11.00;;;;;;;22.54;82.78;100744.59;5089107;28;20676;-66
2021/07/15 02:17:06;;;;;;;19.40;10.23;;;;;;;22.48;83.31;100737.13;5091299;28;20196;-66
2021/07/15 02:19:37;;;;;;;18.87;10.27;;;;;;;22.49;83.47;100746.19;5077199;28;20228;-67
2021/07/15 02:22:06;;;;;;;20.80;10.70;;;;;;;22.45;83.92;100745.69;5084407;28;20254;-67
2021/07/15 02:24:36;;;;;;;20.33;10.57;;;;;;;22.47;83.79;100743.63;5091206;28;20586;-66
2021/07/15 02:27:05;;;;;;;21.30;11.20;;;;;;;22.43;83.46;100720.38;5090599;28;20201;-67
2021/07/15 02:29:36;;;;;;;20.07;10.90;;;;;;;22.48;83.76;100728.91;5082306;28;20225;-67
2021/07/15 02:32:07;;;;;;;20.03;10.90;;;;;;;22.28;83.97;100695.66;5072936;28;20221;-67
2021/07/15 02:34:41;;;;;;;24.73;10.27;;;;;;;22.41;83.77;100707.91;5077293;28;20198;-67
2021/07/15 02:37:12;;;;;;;18.63;10.73;;;;;;;22.50;83.41;100720.50;5083822;28;20676;-66
2021/07/15 02:39:40;;;;;;;23.37;10.93;;;;;;;22.53;83.31;100721.00;5090911;28;20640;-67
2021/07/15 02:42:09;;;;;;;25.10;11.43;;;;;;;22.49;84.41;100710.59;5090601;28;20211;-67
2021/07/15 02:44:39;;;;;;;23.93;10.83;;;;;;;22.41;84.40;100699.72;5091648;28;20219;-66
2021/07/15 02:47:08;;;;;;;22.33;10.70;;;;;;;22.47;84.44;100690.75;5090658;28;20670;-66
2021/07/15 02:49:39;;;;;;;25.63;12.17;;;;;;;22.36;83.86;100652.88;5091256;28;20220;-66
2021/07/15 02:52:07;;;;;;;20.43;10.70;;;;;;;22.58;83.07;100679.38;5090564;28;20215;-66
2021/07/15 02:54:38;;;;;;;18.53;10.17;;;;;;;22.68;82.56;100690.09;5085259;28;20542;-67
2021/07/15 02:57:15;;;;;;;21.17;10.17;;;;;;;22.74;81.69;100692.94;5090836;28;20212;-66
2021/07/15 02:59:48;;;;;;;16.60;9.73;;;;;;;22.77;82.06;100697.19;5091775;28;20217;-66
2021/07/15 03:02:22;;;;;;;20.03;10.33;;;;;;;22.52;81.54;100648.09;5090706;28;20225;-66
2021/07/15 03:05:01;;;;;;;20.07;10.47;;;;;;;22.84;81.67;100712.72;5090571;28;20196;-66
2021/07/15 03:07:31;;;;;;;17.50;9.40;;;;;;;22.86;81.30;100710.66;5088250;28;20207;-67
2021/07/15 03:10:01;;;;;;;25.17;10.83;;;;;;;22.89;81.19;100709.44;5079629;28;20217;-66
2021/07/15 03:12:35;;;;;;;21.70;10.87;;;;;;;22.89;81.71;100710.28;5079733;28;20205;-66
2021/07/15 03:15:05;;;;;;;18.80;10.73;;;;;;;22.92;81.73;100703.59;5084968;28;20197;-65
2021/07/15 03:17:39;;;;;;;23.23;11.57;;;;;;;22.85;81.66;100686.19;5083913;28;20192;-66
2021/07/15 03:20:18;;;;;;;20.80;10.80;;;;;;;22.77;82.79;100678.03;5081783;28;20231;-66
2021/07/15 03:22:50;;;;;;;20.90;10.77;;;;;;;22.77;82.38;100676.13;5088940;28;20275;-66
2021/07/15 03:25:20;;;;;;;22.27;11.07;;;;;;;22.49;83.08;100636.69;5088401;28;20546;-67
2021/07/15 03:27:51;;;;;;;23.00;11.03;;;;;;;22.67;83.10;100680.19;5085541;28;20196;-67
2021/07/15 03:30:20;;;;;;;21.57;10.57;;;;;;;22.63;83.33;100672.31;5088517;28;20262;-66
2021/07/15 03:32:50;;;;;;;24.97;11.50;;;;;;;22.72;83.01;100685.94;5090774;28;20212;-67
2021/07/15 03:35:20;;;;;;;26.77;12.30;;;;;;;22.64;83.52;100686.84;5093352;28;20193;-66
2021/07/15 03:37:50;;;;;;;23.50;12.23;;;;;;;22.58;83.58;100680.22;5092660;28;20664;-66
2021/07/15 03:40:22;;;;;;;21.23;10.80;;;;;;;22.63;83.38;100683.25;5094256;28;20246;-66
2021/07/15 03:42:51;;;;;;;18.90;10.40;;;;;;;22.73;83.08;100680.28;5092118;28;20211;-66
2021/07/15 03:45:22;;;;;;;22.03;10.90;;;;;;;22.82;82.55;100670.13;5085741;28;20196;-66
2021/07/15 03:47:52;;;;;;;21.23;11.30;;;;;;;22.90;82.23;100667.31;5094406;28;20247;-67
2021/07/15 03:50:25;;;;;;;20.57;11.57;;;;;;;22.97;81.83;100675.66;5093931;28;20240;-66
2021/07/15 03:52:56;;;;;;;19.50;10.43;;;;;;;22.94;81.48;100665.91;5094059;28;20197;-66
2021/07/15 03:55:26;;;;;;;18.20;10.23;;;;;;;23.02;81.55;100682.28;5091889;28;20201;-66
2021/07/15 03:57:56;;;;;;;20.67;11.17;;;;;;;23.02;81.74;100678.69;5093177;28;20200;-66
2021/07/15 04:00:26;;;;;;;20.43;11.57;;;;;;;22.91;82.55;100663.53;5093643;28;20184;-66
2021/07/15 04:02:59;;;;;;;21.07;11.70;;;;;;;23.00;82.21;100681.63;5094369;28;20552;-67
2021/07/15 04:05:31;;;;;;;24.07;12.10;;;;;;;23.01;81.17;100680.56;5092205;28;20204;-67
2021/07/15 04:08:01;;;;;;;24.27;11.63;;;;;;;22.99;81.38;100682.66;5094374;28;20702;-67
2021/07/15 04:10:30;;;;;;;19.53;10.13;;;;;;;23.15;79.61;100693.44;5084790;28;20688;-67
2021/07/15 04:13:00;;;;;;;17.40;10.17;;;;;;;23.23;79.18;100690.59;5080381;28;20192;-66
2021/07/15 04:15:49;;;;;;;18.50;9.37;;;;;;;23.28;79.40;100697.44;5080638;28;20205;-66
2021/07/15 04:18:18;;;;;;;15.90;9.73;;;;;;;23.19;79.04;100678.31;5087679;28;22537;-66
2021/07/15 04:20:48;;;;;;;20.27;10.27;;;;;;;23.32;79.84;100698.75;5083125;28;20229;-66
2021/07/15 04:23:19;;;;;;;17.33;9.60;;;;;;;23.33;79.76;100703.19;5086680;28;20193;-67
2021/07/15 04:25:48;;;;;;;17.33;10.30;;;;;;;23.34;79.93;100697.53;5087956;28;20191;-67
2021/07/15 04:28:17;;;;;;;15.13;9.73;;;;;;;23.21;80.10;100700.91;5091802;28;20203;-67
2021/07/15 04:30:46;;;;;;;14.50;8.70;;;;;;;23.30;79.18;100701.69;5092459;28;20248;-67
2021/07/15 04:33:14;;;;;;;14.83;9.43;;;;;;;23.41;78.69;100697.63;5086687;28;20193;-66
2021/07/15 04:35:42;;;;;;;15.20;9.03;;;;;;;23.40;78.62;100698.66;5084833;28;20677;-67
2021/07/15 04:38:12;;;;;;;14.57;8.60;;;;;;;23.41;78.93;100703.94;5091439;28;20299;-66
2021/07/15 04:40:40;;;;;;;13.57;8.87;;;;;;;23.50;77.69;100700.06;5092424;28;20615;-66
2021/07/15 04:43:10;;;;;;;14.27;9.00;;;;;;;23.56;77.10;100694.88;5092102;28;20199;-67
2021/07/15 04:45:41;;;;;;;13.43;8.93;;;;;;;23.50;78.03;100688.25;5090965;28;20581;-66
2021/07/15 04:48:10;;;;;;;12.97;8.30;;;;;;;23.57;78.06;100699.34;5091025;28;20285;-66
2021/07/15 04:50:39;;;;;;;16.63;8.90;;;;;;;23.32;78.31;100682.31;5092671;28;20224;-66
2021/07/15 04:53:11;;;;;;;15.83;9.70;;;;;;;23.52;77.81;100717.19;5092906;28;20315;-66
2021/07/15 04:55:41;;;;;;;14.50;8.60;;;;;;;23.59;77.11;100709.09;5093181;28;20208;-66
2021/07/15 04:58:10;;;;;;;15.67;9.23;;;;;;;23.39;79.05;100717.00;5091511;28;20292;-66
2021/07/15 05:00:39;;;;;;;14.43;9.03;;;;;;;23.22;78.97;100686.16;5092929;28;20563;-65
2021/07/15 05:03:18;;;;;;;14.73;8.90;;;;;;;23.35;79.58;100720.31;5091099;28;20211;-65
2021/07/15 05:05:47;;;;;;;14.30;9.07;;;;;;;23.40;79.64;100729.66;5084613;28;20275;-65
2021/07/15 05:08:15;;;;;;;22.27;10.77;;;;;;;23.28;79.95;100724.84;5091108;28;20188;-65
2021/07/15 05:10:44;;;;;;;17.87;9.90;;;;;;;23.27;80.54;100734.94;5088030;28;20212;-65
2021/07/15 05:13:13;;;;;;;16.87;9.60;;;;;;;23.26;80.33;100726.88;5082162;28;20205;-65
2021/07/15 05:15:41;;;;;;;16.67;9.23;;;;;;;23.38;78.72;100731.75;5090707;28;20209;-65
2021/07/15 05:18:09;;;;;;;14.67;9.10;;;;;;;23.45;78.73;100732.69;5084903;28;20198;-66
2021/07/15 05:20:37;;;;;;;17.43;9.57;;;;;;;23.51;79.31;100725.59;5082549;28;20229;-65
2021/07/15 05:23:05;;;;;;;16.90;8.93;;;;;;;23.64;77.79;100724.97;5089016;28;20193;-66
2021/07/15 05:25:33;;;;;;;15.53;9.00;;;;;;;23.56;78.74;100723.16;5090020;28;20280;-66
2021/07/15 05:28:04;;;;;;;19.17;10.87;;;;;;;23.44;79.04;100730.13;5091077;28;20211;-67
2021/07/15 05:30:32;;;;;;;18.53;9.83;;;;;;;23.32;79.46;100737.13;5079084;28;20209;-67
2021/07/15 05:33:00;;;;;;;17.97;10.30;;;;;;;23.28;80.25;100735.81;5073307;28;20201;-66
2021/07/15 05:35:28;;;;;;;17.00;10.07;;;;;;;23.36;78.83;100735.72;5081044;28;20216;-67
2021/07/15 05:37:58;;;;;;;17.83;10.03;;;;;;;23.29;77.92;100716.44;5087510;28;20206;-68
2021/07/15 05:40:27;;;;;;;18.57;9.93;;;;;;;23.44;77.42;100735.63;5081152;28;20288;-69
2021/07/15 05:42:55;;;;;;;22.67;10.50;;;;;;;23.37;78.62;100730.03;5084533;28;20195;-67
2021/07/15 05:45:24;;;;;;;17.73;10.00;;;;;;;23.30;77.45;100706.31;5077215;28;20602;-67
2021/07/15 05:47:53;;;;;;;19.43;10.43;;;;;;;23.36;78.91;100716.53;5079628;28;20232;-64
2021/07/15 05:50:21;;;;;;;17.07;10.10;;;;;;;23.38;79.22;100719.94;5083403;28;20550;-66
2021/07/15 05:52:49;;;;;;;17.33;9.43;;;;;;;23.42;78.63;100713.03;5089268;28;20258;-66
2021/07/15 05:55:17;;;;;;;19.73;10.67;;;;;;;23.42;79.62;100710.28;5088293;28;20224;-66
2021/07/15 05:57:45;;;;;;;16.83;10.23;;;;;;;23.51;78.60;100703.66;5083316;28;20283;-64
2021/07/15 06:00:14;;;;;;;19.17;10.53;;;;;;;23.59;79.53;100706.38;5085923;28;20196;-66
2021/07/15 06:02:44;;;;;;;15.17;9.30;;;;;;;23.75;76.65;100705.28;5091236;28;20218;-64
2021/07/15 06:05:25;;;;;;;15.13;9.63;;;;;;;23.88;76.34;100716.47;5086967;28;20699;-66
2021/07/15 06:07:53;;;;;;;15.37;9.40;;;;;;;23.95;76.68;100722.03;5091338;28;20200;-64
2021/07/15 06:10:22;;;;;;;15.70;9.47;;;;;;;24.05;76.19;100709.69;5090149;28;20271;-66
2021/07/15 06:12:50;;;;;;;14.67;8.87;;;;;;;24.17;75.51;100710.03;5090882;28;20255;-67
2021/07/15 06:15:18;;;;;;;13.77;9.10;;;;;;;24.25;74.91;100717.31;5086316;28;20193;-67
2021/07/15 06:17:48;;;;;;;17.27;9.37;;;;;;;24.38;74.81;100715.59;5083267;28;20204;-66
2021/07/15 06:20:16;;;;;;;14.77;9.50;;;;;;;24.39;74.60;100725.53;5089280;28;20228;-67
2021/07/15 06:22:45;;;;;;;16.40;9.73;;;;;;;24.18;76.63;100714.47;5080971;28;20272;-66
2021/07/15 06:25:15;;;;;;;14.60;8.60;;;;;;;24.51;74.03;100716.81;5072902;28;20198;-66
2021/07/15 06:27:44;;;;;;;17.20;10.03;;;;;;;24.37;77.16;100727.63;5083714;28;20634;-66
2021/07/15 06:30:14;;;;;;;17.87;9.57;;;;;;;24.20;76.35;100712.41;5078460;28;20193;-66
2021/07/15 06:32:42;;;;;;;15.27;9.63;;;;;;;24.41;75.99;100742.66;5076747;28;20255;-66
2021/07/15 06:35:17;;;;;;;16.77;9.63;;;;;;;24.39;76.23;100724.69;5084342;28;20201;-65
2021/07/15 06:37:50;;;;;;;14.60;9.43;;;;;;;24.65;74.34;100724.13;5082673;28;20295;-66
2021/07/15 06:40:19;;;;;;;14.30;9.13;;;;;;;24.79;74.36;100725.94;5089000;28;20209;-67
2021/07/15 06:42:48;;;;;;;15.13;8.97;;;;;;;24.97;71.81;100728.22;5089414;28;20185;-67
2021/07/15 06:45:17;;;;;;;13.50;8.77;;;;;;;25.19;71.07;100738.16;5089946;28;20275;-66
2021/07/15 06:47:45;;;;;;;15.63;9.33;;;;;;;25.33;70.69;100731.69;5090525;28;20208;-67
2021/07/15 06:50:17;;;;;;;15.67;9.30;;;;;;;25.42;70.46;100732.44;5090684;28;20204;-65
2021/07/15 06:52:46;;;;;;;17.23;9.70;;;;;;;25.56;70.34;100733.34;5091239;28;20224;-67
2021/07/15 06:55:14;;;;;;;16.40;9.90;;;;;;;25.52;71.43;100721.91;5089318;28;20288;-67
2021/07/15 06:57:43;;;;;;;16.10;9.90;;;;;;;25.54;72.18;100727.19;5090070;28;20254;-67
2021/07/15 07:00:13;;;;;;;16.77;10.33;;;;;;;25.52;72.44;100721.91;5088695;28;20557;-67
2021/07/15 07:02:42;;;;;;;16.55;10.18;;;;;;;25.54;72.68;100725.28;5089943;28;20199;-66
2021/07/15 07:05:12;;;;;;;15.77;10.05;;;;;;;25.75;72.44;100737.31;5088978;28;20209;-67
2021/07/15 07:07:46;;;;;;;19.20;9.93;;;;;;;25.83;72.29;100728.88;5089708;28;20196;-65
2021/07/15 07:10:15;;;;;;;17.25;10.40;;;;;;;25.89;71.65;100722.56;5080896;28;20509;-66
2021/07/15 07:12:44;;;;;;;15.35;9.80;;;;;;;25.95;72.45;100728.09;5086079;28;20220;-64
2021/07/15 07:15:14;;;;;;;14.15;9.40;;;;;;;26.29;72.09;100724.41;5089548;28;20869;-65
2021/07/15 07:17:43;;;;;;;15.45;9.93;;;;;;;26.39;71.18;100691.00;5084377;28;20216;-65
2021/07/15 07:20:13;;;;;;;14.35;9.68;;;;;;;26.74;70.11;100722.00;5088844;28;20228;-65
2021/07/15 07:22:43;;;;;;;14.93;9.75;;;;;;;26.98;69.09;100725.22;5089906;28;20255;-65
2021/07/15 07:25:16;;;;;;;15.65;9.88;;;;;;;27.30;69.44;100737.31;5089802;28;20542;-65
2021/07/15 07:27:45;;;;;;;12.43;9.05;;;;;;;27.73;66.69;100726.66;5079742;28;20197;-65
2021/07/15 07:30:16;;;;;;;16.75;9.10;;;;;;;28.20;63.38;100727.31;5087086;28;20197;-67
2021/07/15 07:32:45;;;;;;;14.93;9.27;;;;;;;28.57;62.43;100711.84;5078206;28;20703;-65
2021/07/15 07:35:16;;;;;;;12.27;9.10;;;;;;;28.99;62.39;100733.25;5087102;28;20222;-65
2021/07/15 07:37:46;;;;;;;15.20;9.95;;;;;;;29.26;61.18;100728.31;5077109;28;20240;-65
2021/07/15 07:40:17;;;;;;;15.50;10.02;;;;;;;29.67;58.09;100726.88;5088306;28;20611;-65
2021/07/15 07:42:47;;;;;;;15.73;10.35;;;;;;;29.83;58.09;100695.81;5087390;28;20292;-66
2021/07/15 07:45:17;;;;;;;13.77;9.70;;;;;;;30.31;59.12;100722.72;5082268;28;20434;-67
2021/07/15 07:47:45;;;;;;;14.88;9.38;;;;;;;30.49;58.52;100711.56;5087497;28;20266;-66
2021/07/15 07:50:15;;;;;;;13.88;9.68;;;;;;;30.94;55.85;100713.91;5088121;28;20199;-67
2021/07/15 07:52:43;;;;;;;17.38;9.82;;;;;;;31.12;57.42;100713.81;5081383;28;20213;-67
2021/07/15 07:55:13;;;;;;;16.40;10.52;;;;;;;30.95;56.81;100714.75;5087273;28;20192;-66
2021/07/15 07:57:43;;;;;;;20.25;11.88;;;;;;;30.22;57.92;100660.38;5081077;28;20684;-66
2021/07/15 08:00:14;;;;;;;15.15;10.18;;;;;;;30.61;57.80;100708.88;5087926;28;20664;-67
2021/07/15 08:02:42;;;;;;;16.40;10.20;;;;;;;30.54;57.52;100703.41;5073751;28;20198;-66
2021/07/15 08:05:12;;;;;;;13.02;9.70;;;;;;;30.73;57.11;100681.19;5082843;28;20883;-67
2021/07/15 08:07:40;;;;;;;16.83;10.98;;;;;;;31.23;56.70;100705.78;5089503;28;20200;-67
2021/07/15 08:10:10;;;;;;;15.35;10.82;;;;;;;31.69;54.48;100711.28;5076368;28;20325;-66
2021/07/15 08:12:39;;;;;;;17.40;10.93;;;;;;;32.04;53.74;100725.13;5083202;28;20223;-67
2021/07/15 08:15:10;;;;;;;17.30;11.32;;;;;;;32.35;52.54;100718.28;5083539;28;20197;-67
2021/07/15 08:17:38;;;;;;;16.10;10.93;;;;;;;32.67;51.68;100720.56;5074833;28;20189;-67
2021/07/15 08:20:10;;;;;;;19.73;12.13;;;;;;;32.96;51.06;100718.59;5082818;28;20769;-67
2021/07/15 08:22:39;;;;;;;21.85;13.05;;;;;;;32.89;51.35;100709.56;5078104;28;20645;-67
2021/07/15 08:25:09;;;;;;;17.58;12.15;;;;;;;33.07;51.71;100727.97;5093417;28;20223;-66
2021/07/15 08:27:38;;;;;;;17.80;11.38;;;;;;;33.30;51.70;100722.22;5092734;28;20224;-66
2021/07/15 08:30:10;;;;;;;16.23;10.73;;;;;;;33.13;51.39;100718.59;5079417;28;20200;-67
2021/07/15 08:32:38;;;;;;;19.23;12.57;;;;;;;33.32;51.07;100732.03;5093113;28;20220;-66
2021/07/15 08:35:24;;;;;;;17.85;12.60;;;;;;;33.15;51.53;100711.69;5075117;28;20294;-67
2021/07/15 08:37:52;;;;;;;20.67;13.52;;;;;;;33.32;50.97;100720.88;5084668;28;20209;-68
2021/07/15 08:40:21;;;;;;;20.88;13.07;;;;;;;33.40;50.13;100677.84;5085029;28;20198;-67
2021/07/15 08:42:49;;;;;;;21.75;14.10;;;;;;;33.95;50.36;100718.75;5075396;28;20201;-68
2021/07/15 08:45:18;;;;;;;21.48;13.48;;;;;;;34.23;48.82;100729.69;5093023;28;20196;-68
2021/07/15 08:47:47;;;;;;;23.10;14.00;;;;;;;33.87;49.46;100730.34;5078795;28;20228;-68
2021/07/15 08:50:17;;;;;;;19.73;13.52;;;;;;;34.28;48.80;100739.22;5086769;28;20576;-67
2021/07/15 08:52:46;;;;;;;21.02;12.57;;;;;;;34.29;48.51;100715.78;5086039;28;20223;-68
2021/07/15 08:56:36;;;;;;;25.40;13.23;;;;;;;34.24;48.38;100714.63;5090991;28;20197;-68
2021/07/15 08:58:11;;;;;;;14.82;11.43;;;;;;;34.36;47.85;100725.72;5092615;28;20616;-68
2021/07/15 09:00:41;;;;;;;19.75;12.60;;;;;;;34.36;48.01;100725.72;5092591;28;20279;-67
2021/07/15 09:03:10;;;;;;;18.65;12.60;;;;;;;34.40;48.68;100728.81;5077287;28;20703;-68
2021/07/15 09:05:38;;;;;;;17.85;12.52;;;;;;;34.61;48.80;100732.66;5080143;28;20236;-67
2021/07/15 09:08:07;;;;;;;17.20;12.05;;;;;;;34.52;48.61;100729.50;5092397;28;21064;-67
2021/07/15 09:10:39;;;;;;;21.83;11.95;;;;;;;34.63;48.41;100734.09;5077211;28;20300;-68
2021/07/15 09:13:08;;;;;;;14.85;10.95;;;;;;;34.73;47.85;100700.69;5092412;28;20212;-68
2021/07/15 09:15:36;;;;;;;18.67;11.60;;;;;;;35.04;47.05;100729.75;5091804;28;20561;-68
2021/07/15 09:18:13;;;;;;;17.27;11.05;;;;;;;35.12;45.99;100734.84;5092408;28;20250;-68
2021/07/15 09:20:42;;;;;;;13.10;9.90;;;;;;;34.62;46.67;100732.41;5077217;28;20235;-68
2021/07/15 09:23:12;;;;;;;15.07;10.40;;;;;;;34.88;47.20;100732.66;5091856;28;20220;-68
2021/07/15 09:25:59;;;;;;;14.25;10.35;;;;;;;35.07;45.97;100736.75;5092423;28;20228;-68
2021/07/15 09:28:31;;;;;;;11.98;8.77;;;;;;;35.36;45.85;100746.50;5080218;28;20291;-68
2021/07/15 09:31:17;;;;;;;13.10;9.55;;;;;;;35.40;45.67;100733.69;5091220;28;20288;-68
2021/07/15 09:33:48;;;;;;;13.50;9.93;;;;;;;35.82;44.72;100754.34;5092238;28;20226;-68
2021/07/15 09:36:21;;;;;;;13.75;9.48;;;;;;;35.80;44.69;100751.81;5091431;28;20574;-68
2021/07/15 09:38:49;;;;;;;12.52;9.68;;;;;;;35.80;43.97;100743.44;5090950;28;20192;-68
2021/07/15 09:41:20;;;;;;;12.52;9.32;;;;;;;36.15;43.64;100741.97;5078572;28;20611;-68
2021/07/15 09:43:49;;;;;;;12.10;8.48;;;;;;;35.73;43.19;100745.63;5081938;28;20627;-68
2021/07/15 09:46:24;;;;;;;13.23;8.98;;;;;;;36.22;43.13;100742.56;5089947;28;20224;-68
2021/07/15 09:49:08;;;;;;;11.65;8.98;;;;;;;36.18;40.72;100730.22;5090319;28;20207;-68
2021/07/15 09:51:41;;;;;;;12.63;8.50;;;;;;;36.15;42.88;100730.78;5090745;28;20637;-67
2021/07/15 09:54:10;;;;;;;13.07;9.48;;;;;;;36.32;43.04;100728.63;5091519;28;20223;-68
2021/07/15 09:56:44;;;;;;;13.35;9.82;;;;;;;36.47;43.02;100739.88;5088166;28;20204;-67
2021/07/15 09:59:12;;;;;;;13.18;9.20;;;;;;;36.78;43.06;100732.41;5090010;28;20224;-67
2021/07/15 10:01:48;;;;;;;12.57;9.18;;;;;;;36.81;43.18;100739.41;5091241;28;20606;-68
2021/07/15 10:04:27;;;;;;;11.35;9.15;;;;;;;36.98;42.46;100723.16;5082452;28;20200;-68
2021/07/15 10:06:57;;;;;;;13.80;10.48;;;;;;;37.28;42.71;100745.59;5090890;28;20208;-68
2021/07/15 10:09:27;;;;;;;15.68;9.43;;;;;;;37.34;42.20;100738.00;5085719;28;20209;-68
2021/07/15 10:11:57;;;;;;;11.50;9.57;;;;;;;37.49;40.28;100734.38;5083411;28;20200;-67
2021/07/15 10:14:37;;;;;;;13.13;9.85;;;;;;;37.42;40.29;100734.66;5076772;28;20287;-68
2021/07/15 10:17:07;;;;;;;12.45;10.35;;;;;;;37.25;39.77;100725.69;5078651;28;20205;-68
2021/07/15 10:19:37;;;;;;;13.88;10.60;;;;;;;36.96;41.10;100719.78;5089495;28;20761;-68
2021/07/15 10:22:07;;;;;;;13.25;10.13;;;;;;;37.07;41.46;100715.88;5090868;28;20246;-67
2021/07/15 10:24:36;;;;;;;14.43;10.38;;;;;;;36.90;41.75;100716.16;5090694;28;20201;-66
2021/07/15 10:27:09;;;;;;;11.57;9.38;;;;;;;37.14;41.13;100708.03;5090839;28;20196;-67
2021/07/15 10:29:39;;;;;;;12.80;10.13;;;;;;;37.42;41.41;100733.81;5091046;28;20193;-67
2021/07/15 10:32:10;;;;;;;13.90;10.13;;;;;;;37.40;40.86;100741.69;5090821;28;20204;-66
2021/07/15 10:34:43;;;;;;;13.68;9.57;;;;;;;37.47;40.36;100743.06;5087216;28;20271;-67
2021/07/15 10:37:12;;;;;;;14.05;9.68;;;;;;;37.75;40.49;100738.81;5081623;28;20197;-67
2021/07/15 10:39:41;;;;;;;13.35;9.60;;;;;;;37.67;40.72;100744.16;5088126;28;20287;-67
2021/07/15 10:42:10;;;;;;;16.10;10.07;;;;;;;37.83;40.46;100741.03;5090693;28;20220;-68
2021/07/15 10:44:40;;;;;;;12.25;9.73;;;;;;;37.80;40.42;100740.78;5090257;28;20834;-68
2021/07/15 10:47:09;;;;;;;14.10;10.65;;;;;;;37.29;41.21;100733.25;5090937;28;20196;-68
2021/07/15 10:49:38;;;;;;;14.75;9.85;;;;;;;37.36;41.08;100737.75;5087166;28;20196;-68
2021/07/15 10:52:10;;;;;;;13.48;9.60;;;;;;;37.49;40.98;100729.59;5090489;28;20668;-68
2021/07/15 10:54:40;;;;;;;11.32;8.93;;;;;;;37.73;40.99;100735.47;5089465;28;20319;-68
2021/07/15 10:57:09;;;;;;;18.58;10.02;;;;;;;37.99;40.70;100735.38;5076810;28;20193;-68
2021/07/15 10:59:37;;;;;;;13.10;9.25;;;;;;;37.90;40.26;100691.06;5090613;28;20215;-67
2021/07/15 11:02:22;;;;;;;13.77;9.68;;;;;;;38.24;38.91;100729.66;5090064;28;20238;-68
2021/07/15 11:04:51;;;;;;;10.75;9.40;;;;;;;38.03;39.28;100726.09;5089925;28;20755;-67
2021/07/15 11:07:24;;;;;;;12.27;9.23;;;;;;;37.85;39.46;100721.94;5071869;28;20196;-67
2021/07/15 11:09:54;;;;;;;11.40;9.77;;;;;;;37.98;39.76;100725.28;5075949;28;20201;-68
2021/07/15 11:12:35;;;;;;;11.35;9.25;;;;;;;37.87;38.48;100691.66;5085419;28;20675;-67
2021/07/15 11:15:08;;;;;;;11.85;9.32;;;;;;;37.81;39.81;100732.06;5090235;28;20319;-67
2021/07/15 11:17:45;;;;;;;13.10;9.45;;;;;;;37.95;40.14;100725.84;5089978;28;20319;-67
2021/07/15 11:20:15;;;;;;;12.27;9.38;;;;;;;38.28;39.95;100719.56;5090453;28;20779;-68
2021/07/15 11:22:47;;;;;;;11.13;8.70;;;;;;;38.60;39.28;100723.88;5089562;28;20276;-67
2021/07/15 11:25:17;;;;;;;12.13;9.63;;;;;;;38.25;38.27;100714.50;5089041;28;20216;-67
2021/07/15 11:27:49;;;;;;;11.48;9.13;;;;;;;38.68;38.92;100709.22;5089087;28;20193;-67